Latest Weather Observations for Richmond

IDN60801

Issued at 4:05 pm EDT Tuesday 23 December 2014 (issued every 30 minutes, with the page automatically refreshed every 10 minutes)

About weather observations | Map of weather stations | Latest weather observations for NSW | Other Formats
Station Details ID: 067105 Name: RICHMOND RAAF Lat: -33.60 Lon: 150.78 Height: 19.0 m
Data from the previous 72 hours. | See also: Recent months at Richmond
Date/Time
EDT
Temp
°C
App
Temp
°C
Dew
Point
Rel
Hum
%
Delta-T
°C
Wind Press
QNH
hPa
Press
MSL
hPa
Rain
since 9 am
mm
Dir
 
Spd
km/h
Gust
km/h
Spd
kts
Gust
kts
23/04:00pm 24.0 26.0 20.7 82 2.2 NE 11 15 6 8 1011.6 1011.5 4.0
23/03:30pm 22.3 24.3 18.7 80 2.3 N 6 9 3 5 1012.5 1012.4 4.0
23/03:00pm 21.5 21.2 19.1 86 1.5 WSW 19 30 10 16 1013.4 1013.3 3.4
23/02:49pm 22.4 21.5 19.8 85 1.7 WNW 24 43 13 23 1013.8 1013.7 2.2
23/02:30pm 24.2 25.6 20.3 79 2.5 N 13 20 7 11 1013.1 1013.0 0.8
23/02:00pm 25.6 25.9 19.7 70 3.8 NNE 17 24 9 13 1012.3 1012.2 0.2
23/01:30pm 26.1 25.4 19.5 67 4.3 NNE 22 28 12 15 1012.1 1012.0 0.2
23/01:00pm 26.2 25.5 19.6 67 4.3 NE 22 32 12 17 1012.1 1012.0 0.2
23/12:30pm 26.0 25.5 19.2 66 4.4 NE 20 30 11 16 1012.5 1012.4 0.2
23/12:00pm 25.7 25.5 19.3 67 4.1 NE 19 26 10 14 1013.2 1013.1 0.2
23/11:30am 25.1 25.0 19.5 71 3.6 NE 19 28 10 15 1013.6 1013.5 0.2
23/11:00am 24.5 25.9 18.7 70 3.7 NE 9 17 5 9 1014.3 1014.2 0.0
23/10:30am 24.5 25.6 19.6 74 3.2 NNE 13 19 7 10 1014.3 1014.2 0.0
23/10:00am 23.4 24.5 18.9 76 2.9 N 11 17 6 9 1014.5 1014.4 0.0
23/09:30am 22.8 24.5 19.4 81 2.2 N 9 13 5 7 1014.7 1014.6 0.0
23/09:00am 21.8 23.4 19.2 85 1.6 NW 9 13 5 7 1015.1 1015.0 32.0
23/08:30am 20.7 22.8 19.0 90 1.1 NW 6 9 3 5 1015.2 1015.1 32.0
23/08:00am 20.3 21.7 19.5 95 0.5 NNE 11 19 6 10 1015.0 1014.9 32.0
23/07:30am 20.2 22.4 19.5 96 0.4 N 7 9 4 5 1014.9 1014.8 31.6
23/07:00am 20.1 21.8 19.4 96 0.4 NNW 9 13 5 7 1014.8 1014.7 31.4
23/06:30am 20.0 22.0 19.2 95 0.5 NW 7 9 4 5 1014.5 1014.4 31.4
23/06:00am 20.1 22.5 18.8 92 0.8 SE 4 7 2 4 1014.2 1014.1 31.2
23/05:30am 20.1 22.3 19.1 94 0.6 SSW 6 6 3 3 1014.1 1014.0 31.2
23/05:00am 20.1 22.2 18.9 93 0.8 S 6 7 3 4 1014.2 1014.1 31.2
23/04:30am 20.5 22.6 19.0 91 0.9 SSW 6 7 3 4 1014.0 1013.9 30.6
23/04:00am 20.4 23.7 19.1 92 0.8 CALM 0 0 0 0 1014.2 1014.1 30.2
23/03:30am 20.4 22.5 18.9 91 0.9 SW 6 6 3 3 1014.3 1014.2 30.2
23/03:00am 20.5 23.2 18.6 89 1.2 SSE 2 6 1 3 1014.1 1014.0 30.2
23/02:30am 20.9 22.9 19.2 90 1.1 ESE 7 11 4 6 1014.3 1014.2 30.2
23/02:00am 20.6 22.0 19.6 94 0.6 ESE 11 15 6 8 1014.5 1014.4 30.2
23/01:30am 20.6 24.1 19.6 94 0.6 CALM 0 0 0 0 1015.0 1014.9 30.2
23/01:00am 20.5 22.7 19.5 94 0.6 WSW 7 9 4 5 1015.1 1015.0 30.2
23/12:30am 20.4 23.9 19.6 95 0.5 CALM 0 9 0 5 1015.0 1014.9 30.2
23/12:00am 20.2 23.5 19.2 94 0.6 CALM 0 0 0 0 1014.9 1014.8 30.2
 
Date/Time
EDT
Temp
°C
App
Temp
°C
Dew
Point
Rel
Hum
%
Delta-T
°C
Wind Press
QNH
hPa
Press
MSL
hPa
Rain
since 9 am
mm
Dir
 
Spd
km/h
Gust
km/h
Spd
kts
Gust
kts
22/11:30pm 20.4 23.7 19.2 93 0.8 CALM 0 0 0 0 1015.0 1014.9 30.2
22/11:00pm 20.5 23.8 19.2 92 0.8 CALM 0 0 0 0 1015.4 1015.3 30.2
22/10:30pm 20.7 24.0 19.0 90 1.1 CALM 0 0 0 0 1015.4 1015.3 30.2
22/10:00pm 20.7 23.6 19.0 90 1.1 W 2 7 1 4 1015.3 1015.2 30.2
22/09:30pm 20.9 23.3 18.8 88 1.3 SE 4 6 2 3 1015.0 1014.9 30.2
22/09:00pm 20.8 22.7 18.9 89 1.2 SSE 7 11 4 6 1015.0 1014.9 30.2
22/08:30pm 20.9 23.3 18.7 87 1.4 WSW 4 9 2 5 1015.0 1014.9 30.2
22/08:00pm 20.9 21.9 18.7 87 1.4 NNW 11 13 6 7 1015.3 1015.2 30.2
22/07:30pm 20.7 22.0 18.5 87 1.4 NNW 9 13 5 7 1015.2 1015.1 30.2
22/07:00pm 21.0 22.5 18.8 87 1.4 NNW 9 13 5 7 1015.3 1015.2 30.2
22/06:30pm 21.4 23.2 18.2 82 2.0 SE 6 7 3 4 1015.2 1015.1 30.2
22/06:00pm 21.1 22.2 18.9 87 1.4 SSW 11 15 6 8 1014.4 1014.3 30.2
22/05:30pm 21.2 20.8 18.0 82 2.0 WSW 17 24 9 13 1013.8 1013.7 30.2
22/05:00pm 21.8 21.6 18.4 81 2.1 NE 17 19 9 10 1014.0 1013.9 29.4
22/04:53pm 20.9 21.2 18.7 87 1.4 NNE 15 19 8 10 1014.3 1014.2 29.0
22/04:34pm 20.3 16.9 16.7 80 2.2 N 30 48 16 26 1015.2 1015.1 28.2
22/04:30pm 21.5 17.6 16.9 75 2.8 N 33 48 18 26 1015.4 1015.3 27.0
22/04:23pm 20.0 16.1 17.8 87 1.4 N 35 48 19 26 1015.9 1015.8 25.2
22/04:15pm 19.0 12.8 17.3 90 1.0 N 46 70 25 38 1016.1 1016.0 22.2
22/04:09pm 18.3 9.9 17.1 93 0.7 N 57 87 31 47 1016.3 1016.2 19.8
22/04:02pm 18.0 7.9 17.5 97 0.3 NNW 67 89 36 48 1015.1 1015.0 14.8
22/04:00pm 17.5 7.3 16.4 93 0.7 NNW 65 89 35 48 1014.8 1014.7 11.4
22/03:55pm 17.9 9.7 16.2 90 1.0 NNW 54 89 29 48 1014.3 1014.2 5.8
22/03:54pm 18.1 10.9 15.9 87 1.3 NNW 48 89 26 48 1014.1 1014.0 4.6
22/03:52pm 20.5 15.7 16.7 79 2.3 N 37 76 20 41 1014.5 1014.4 1.4
22/03:50pm 23.5 20.1 16.8 66 4.1 N 30 65 16 35 1014.5 1014.4 0.0
22/03:47pm 26.4 24.3 16.3 53 6.2 NE 22 46 12 25 1014.2 1014.1 0.0
22/03:30pm 30.4 30.2 18.5 49 7.7 E 17 26 9 14 1012.8 1012.7 0.0
22/03:00pm 31.3 31.1 18.6 46 8.2 ENE 17 24 9 13 1012.6 1012.5 0.0
22/02:30pm 32.4 33.0 18.6 44 9.0 NE 13 22 7 12 1012.9 1012.8 0.0
22/02:00pm 31.8 32.0 17.7 43 9.0 ENE 13 22 7 12 1013.3 1013.2 0.0
22/01:30pm 30.9 30.8 17.9 45 8.3 ENE 15 24 8 13 1014.1 1014.0 0.0
22/01:00pm 29.8 29.7 17.9 48 7.6 ENE 15 24 8 13 1014.7 1014.6 0.0
22/12:30pm 29.1 30.9 18.8 53 6.6 ENE 7 17 4 9 1015.2 1015.1 0.0
22/12:00pm 27.6 29.0 18.6 58 5.8 ESE 9 13 5 7 1015.8 1015.7 0.0
22/11:30am 26.2 27.3 18.1 61 5.1 NE 9 15 5 8 1016.1 1016.0 0.0
22/11:00am 25.7 27.2 18.9 66 4.3 NNE 9 19 5 10 1016.3 1016.2 0.0
22/10:30am 25.1 26.6 19.0 69 3.9 ENE 9 13 5 7 1016.5 1016.4 0.0
22/10:00am 24.0 26.1 18.9 73 3.2 NE 6 9 3 5 1016.7 1016.6 0.0
22/09:30am 22.6 24.2 18.2 76 2.8 NNE 7 11 4 6 1017.0 1016.9 0.0
22/09:15am 22.4 23.7 18.4 78 2.5 NNW 9 13 5 7 1017.1 1017.0 0.0
22/09:00am 22.1 23.3 18.3 79 2.4 WNW 9 13 5 7 1016.9 1016.8 0.0
22/08:30am 21.5 23.3 18.3 82 2.0 NW 6 9 3 5 1017.0 1016.9 0.0
22/08:00am 20.5 23.2 18.6 89 1.2 WSW 2 7 1 4 1016.8 1016.7 0.0
22/07:30am 19.7 22.8 18.7 94 0.6 CALM 0 0 0 0 1016.4 1016.3 0.0
22/07:00am 18.8 21.7 18.1 96 0.4 CALM 0 0 0 0 1016.2 1016.1 0.0
22/06:30am 17.9 20.5 17.4 97 0.3 CALM 0 0 0 0 1015.9 1015.8 0.0
22/06:16am 17.6 20.0 17.1 97 0.3 CALM 0 0 0 0 1015.6 1015.5 0.0
22/06:00am 17.1 19.3 16.5 96 0.4 CALM 0 0 0 0 1015.7 1015.6 0.0
22/05:30am 17.2 19.4 16.6 96 0.4 CALM 0 0 0 0 1015.2 1015.1 0.0
22/05:00am 17.2 18.1 16.2 94 0.6 SW 6 9 3 5 1014.7 1014.6 0.0
22/04:30am 17.8 18.9 17.2 96 0.4 SW 7 9 4 5 1014.7 1014.6 0.0
22/04:00am 17.9 20.3 17.1 95 0.5 CALM 0 0 0 0 1014.6 1014.5 0.0
22/03:30am 17.7 20.1 16.9 95 0.5 CALM 0 0 0 0 1014.5 1014.4 0.0
22/03:00am 17.9 20.2 16.8 93 0.7 CALM 0 0 0 0 1015.0 1014.9 0.0
22/02:30am 18.3 20.7 17.1 93 0.7 CALM 0 4 0 2 1015.3 1015.2 0.0
22/02:00am 19.1 21.7 17.4 90 1.0 CALM 0 0 0 0 1015.4 1015.3 0.0
22/01:30am 19.0 21.5 17.3 90 1.0 CALM 0 6 0 3 1015.7 1015.6 0.0
22/01:00am 19.1 21.5 17.1 88 1.2 CALM 0 4 0 2 1015.8 1015.7 0.0
22/12:30am 20.1 21.6 17.5 85 1.6 SSW 6 7 3 4 1015.7 1015.6 0.0
22/12:00am 20.4 21.9 17.6 84 1.7 SW 6 7 3 4 1016.1 1016.0 0.0
 
Date/Time
EDT
Temp
°C
App
Temp
°C
Dew
Point
Rel
Hum
%
Delta-T
°C
Wind Press
QNH
hPa
Press
MSL
hPa
Rain
since 9 am
mm
Dir
 
Spd
km/h
Gust
km/h
Spd
kts
Gust
kts
21/11:30pm 20.9 21.4 17.5 81 2.1 E 11 15 6 8 1016.0 1015.9 0.0
21/11:00pm 21.4 21.6 17.6 79 2.3 E 13 17 7 9 1016.0 1015.9 0.0
21/10:30pm 21.8 22.1 17.8 78 2.5 E 13 17 7 9 1016.2 1016.1 0.0
21/10:00pm 22.1 22.3 17.7 76 2.7 E 13 17 7 9 1016.2 1016.1 0.0
21/09:30pm 22.5 22.8 17.8 75 2.9 E 13 19 7 10 1016.1 1016.0 0.0
21/09:00pm 23.1 23.4 17.8 72 3.3 E 13 19 7 10 1015.7 1015.6 0.0
21/08:30pm 23.3 23.1 17.7 71 3.5 E 15 19 8 10 1015.3 1015.2 0.0
21/08:00pm 24.1 23.5 17.6 67 4.0 E 17 22 9 12 1014.7 1014.6 0.0
21/07:30pm 25.1 24.5 17.6 63 4.7 ENE 17 22 9 12 1014.3 1014.2 0.0
21/07:00pm 26.5 25.3 17.6 58 5.6 E 20 28 11 15 1013.8 1013.7 0.0
21/06:30pm 27.3 26.2 17.8 56 6.0 ENE 20 32 11 17 1013.4 1013.3 0.0
21/06:00pm 28.1 26.6 17.6 53 6.6 E 22 35 12 19 1013.3 1013.2 0.0
21/05:30pm 28.9 27.3 18.4 53 6.7 E 24 35 13 19 1013.1 1013.0 0.0
21/05:00pm 29.1 27.7 17.9 50 7.1 E 22 33 12 18 1013.2 1013.1 0.0
21/04:30pm 29.4 28.0 17.9 50 7.3 E 22 30 12 16 1013.2 1013.1 0.0
21/04:00pm 29.6 28.4 18.4 51 7.2 ENE 22 33 12 18 1013.5 1013.4 0.0
21/03:30pm 29.6 28.2 17.1 47 7.9 ENE 20 28 11 15 1014.1 1014.0 0.0
21/03:00pm 30.2 28.9 15.9 42 8.9 NE 17 24 9 13 1014.3 1014.2 0.0
21/02:30pm 29.5 29.0 16.0 44 8.4 ENE 13 22 7 12 1014.9 1014.8 0.0
21/02:00pm 28.8 27.3 15.3 43 8.3 E 17 24 9 13 1015.4 1015.3 0.0
21/01:30pm 28.3 27.0 15.9 47 7.6 E 17 26 9 14 1015.8 1015.7 0.0
21/01:00pm 27.4 27.6 15.7 48 7.2 NE 9 22 5 12 1016.6 1016.5 0.0
21/12:30pm 26.9 26.5 16.2 52 6.6 E 13 24 7 13 1016.9 1016.8 0.0
21/12:00pm 25.9 26.3 16.2 55 5.9 NNE 9 17 5 9 1017.4 1017.3 0.0
21/11:30am 25.3 25.0 16.4 57 5.5 NE 13 20 7 11 1017.6 1017.5 0.0
21/11:00am 24.6 23.8 16.1 59 5.2 ENE 15 22 8 12 1017.6 1017.5 0.0
21/10:30am 23.2 23.1 16.0 64 4.4 NE 11 17 6 9 1018.1 1018.0 0.0
21/10:00am 22.5 22.1 15.1 63 4.4 ENE 11 19 6 10 1018.2 1018.1 0.0
21/09:30am 21.3 21.9 15.2 68 3.6 NE 6 9 3 5 1018.6 1018.5 0.0
21/09:00am 20.4 21.0 14.3 68 3.5 NNW 4 7 2 4 1018.8 1018.7 0.0
21/08:30am 20.0 20.4 13.7 67 3.6 SSE 4 9 2 5 1018.8 1018.7 0.0
21/08:00am 18.5 19.7 13.8 74 2.7 CALM 0 0 0 0 1018.8 1018.7 0.0
21/07:30am 17.3 18.6 14.0 81 1.9 CALM 0 0 0 0 1018.6 1018.5 0.0
21/07:00am 16.0 17.0 13.3 84 1.5 CALM 0 2 0 1 1018.4 1018.3 0.0
21/06:30am 14.8 16.0 13.7 93 0.6 CALM 0 0 0 0 1018.1 1018.0 0.0
21/06:00am 14.0 15.0 13.2 95 0.4 CALM 0 0 0 0 1017.8 1017.7 0.0
21/05:30am 14.0 15.0 13.2 95 0.4 CALM 0 0 0 0 1017.7 1017.6 0.0
21/05:00am 14.3 15.3 13.2 93 0.6 CALM 0 0 0 0 1017.5 1017.4 0.0
21/04:30am 14.3 15.2 13.0 92 0.7 CALM 0 0 0 0 1017.5 1017.4 0.0
21/04:00am 14.5 14.4 13.2 92 0.7 W 6 7 3 4 1017.5 1017.4 0.0
21/03:30am 15.1 15.1 13.6 91 0.8 WSW 6 6 3 3 1017.3 1017.2 0.0
21/03:00am 15.1 15.1 13.6 91 0.8 WSW 6 7 3 4 1017.5 1017.4 0.0
21/02:30am 15.1 16.2 13.6 91 0.8 CALM 0 0 0 0 1017.6 1017.5 0.0
21/02:00am 15.5 16.7 13.9 90 0.9 CALM 0 0 0 0 1017.8 1017.7 0.0
21/01:30am 15.7 16.8 13.5 87 1.2 CALM 0 0 0 0 1018.1 1018.0 0.0
21/01:00am 16.3 17.4 13.6 84 1.5 CALM 0 0 0 0 1018.2 1018.1 0.0
21/12:30am 16.7 17.1 13.6 82 1.7 NNW 4 6 2 3 1018.4 1018.3 0.0
21/12:00am 17.3 17.3 13.6 79 2.1 N 6 7 3 4 1018.7 1018.6 0.0
 
Date/Time
EDT
Temp
°C
App
Temp
°C
Dew
Point
Rel
Hum
%
Delta-T
°C
Wind Press
QNH
hPa
Press
MSL
hPa
Rain
since 9 am
mm
Dir
 
Spd
km/h
Gust
km/h
Spd
kts
Gust
kts
20/11:30pm 18.0 17.1 13.7 76 2.4 ENE 11 13 6 7 1018.9 1018.8 0.0
20/11:00pm 18.2 17.3 13.7 75 2.6 ENE 11 15 6 8 1018.8 1018.7 0.0
20/10:30pm 18.4 17.5 13.7 74 2.7 ENE 11 13 6 7 1018.7 1018.6 0.0
20/10:00pm 19.1 17.8 13.7 71 3.1 ENE 13 15 7 8 1018.6 1018.5 0.0
20/09:30pm 19.6 18.2 13.3 67 3.6 ENE 13 19 7 10 1018.1 1018.0 0.0
20/09:00pm 19.8 18.4 13.3 66 3.7 E 13 17 7 9 1017.7 1017.6 0.0
20/08:30pm 20.3 18.9 13.5 65 3.9 E 13 15 7 8 1017.2 1017.1 0.0
20/08:00pm 21.1 19.2 13.0 60 4.6 E 15 20 8 11 1016.7 1016.6 0.0
20/07:30pm 21.8 19.0 13.2 58 4.9 ESE 20 24 11 13 1016.3 1016.2 0.0
20/07:00pm 22.9 20.1 13.1 54 5.6 E 20 26 11 14 1015.8 1015.7 0.0
20/06:30pm 23.8 21.1 13.6 52 5.9 E 20 26 11 14 1015.2 1015.1 0.0
20/06:00pm 24.6 21.9 13.5 50 6.5 E 20 28 11 15 1014.7 1014.6 0.0
20/05:30pm 24.9 20.7 13.5 49 6.7 ESE 28 35 15 19 1014.3 1014.2 0.0
20/05:00pm 25.9 23.1 13.1 45 7.5 ENE 20 37 11 20 1014.1 1014.0 0.0
20/04:30pm 26.2 22.8 13.7 46 7.4 ESE 24 32 13 17 1014.1 1014.0 0.0

Other Formats:

Comma delimited format used in spreadsheet applications
http://www.bom.gov.au/fwo/IDN60801/IDN60801.95753.axf

JavaScript Object Notation format (JSON) in row-major order
http://www.bom.gov.au/fwo/IDN60801/IDN60801.95753.json